Alango, Minnesota
Current Conditions -  °F | °C
As of 5:35 AM on Saturday 20 Dec 2014 (Local Time) from KCQM Reporting Station
Light Snow Light Snow  
Wind Chill: -4°   Ceiling: 600
Heat Index: -4°   Visibility: 1.2mi
Dew Point: -4°   Wind: 3mph
Humidity: 100%   Direction: 150°SSE
Pressure: 30.08"   Gusts: NA
Location:  47.7453°N, 92.7634°W
Report Text: KCQM 201135Z AUTO 15003KT 1 1/4SM -SN BKN006 OVC030 M04/M04 A3008 RMK AO2
Loading
Personal Weather Stations






























Interactive Weather Map New forecast layout! Learn more

10-Day Weather Forecast

Advertisements
Track Severe Weather on mobile